Morley, Missouri
Current Conditions -  °F | °C
As of 2:53 PM on Friday 28 Nov 2014 (Local Time) from KCGI Reporting Station
Clear Clear  
Wind Chill: 40°   Ceiling: Unl
Heat Index: 47°   Visibility: 10mi
Dew Point: 34°   Wind: 17mph
Humidity: 61%   Direction: 180°S
Pressure: 30.11"   Gusts: 24mph
Location:  37.04°N, 89.61°W
Report Text: KCGI 282053Z 18015G21KT 10SM CLR 08/01 A3011 RMK AO2 SLP198 T00830011 56040
Loading
Personal Weather Stations






























Interactive Weather Map New forecast layout! Learn more

10-Day Weather Forecast

Advertisements
Track Severe Weather on mobile